sensor_id;sensor_type;location;lat;lon;timestamp;pressure;altitude;pressure_sealevel;temperature;humidity
37778;BME280;23615;51.506;7.678;2023-05-20T00:01:27;100700.75;;;11.66;79.06
37778;BME280;23615;51.506;7.678;2023-05-20T00:03:53;100692.56;;;11.60;79.90
37778;BME280;23615;51.506;7.678;2023-05-20T00:06:18;100695.06;;;11.55;79.67
37778;BME280;23615;51.506;7.678;2023-05-20T00:08:43;100688.50;;;11.51;79.88
37778;BME280;23615;51.506;7.678;2023-05-20T00:11:09;100686.47;;;11.47;80.04
37778;BME280;23615;51.506;7.678;2023-05-20T00:13:34;100689.78;;;11.42;80.10
37778;BME280;23615;51.506;7.678;2023-05-20T00:16:00;100686.09;;;11.37;80.30
37778;BME280;23615;51.506;7.678;2023-05-20T00:18:25;100694.13;;;11.37;80.18
37778;BME280;23615;51.506;7.678;2023-05-20T00:20:50;100696.38;;;11.33;80.67
37778;BME280;23615;51.506;7.678;2023-05-20T00:23:17;100701.72;;;11.33;80.19
37778;BME280;23615;51.506;7.678;2023-05-20T00:25:42;100701.09;;;11.31;80.66
37778;BME280;23615;51.506;7.678;2023-05-20T00:28:07;100699.72;;;11.29;80.70
37778;BME280;23615;51.506;7.678;2023-05-20T00:30:33;100696.41;;;11.27;80.23
37778;BME280;23615;51.506;7.678;2023-05-20T00:32:58;100702.16;;;11.23;80.36
37778;BME280;23615;51.506;7.678;2023-05-20T00:35:23;100699.72;;;11.22;80.91
37778;BME280;23615;51.506;7.678;2023-05-20T00:37:48;100701.75;;;11.20;80.55
37778;BME280;23615;51.506;7.678;2023-05-20T00:40:14;100695.84;;;11.18;80.92
37778;BME280;23615;51.506;7.678;2023-05-20T00:42:40;100700.97;;;11.13;80.94
37778;BME280;23615;51.506;7.678;2023-05-20T00:45:06;100696.44;;;11.13;81.00
37778;BME280;23615;51.506;7.678;2023-05-20T00:47:32;100698.53;;;11.05;80.92
37778;BME280;23615;51.506;7.678;2023-05-20T00:49:59;100692.59;;;10.96;81.80
37778;BME280;23615;51.506;7.678;2023-05-20T00:52:26;100694.06;;;10.92;82.49
37778;BME280;23615;51.506;7.678;2023-05-20T00:54:53;100688.94;;;10.91;82.06
37778;BME280;23615;51.506;7.678;2023-05-20T00:57:19;100687.09;;;10.91;82.07
37778;BME280;23615;51.506;7.678;2023-05-20T00:59:44;100687.69;;;10.86;82.45
37778;BME280;23615;51.506;7.678;2023-05-20T01:02:10;100686.88;;;10.86;82.51
37778;BME280;23615;51.506;7.678;2023-05-20T01:04:35;100678.47;;;10.89;82.41
37778;BME280;23615;51.506;7.678;2023-05-20T01:07:03;100679.06;;;10.91;82.14
37778;BME280;23615;51.506;7.678;2023-05-20T01:09:29;100680.28;;;10.95;82.13
37778;BME280;23615;51.506;7.678;2023-05-20T01:14:46;100671.47;;;10.88;81.87
37778;BME280;23615;51.506;7.678;2023-05-20T01:17:14;100674.75;;;10.83;81.90
37778;BME280;23615;51.506;7.678;2023-05-20T01:19:42;100678.47;;;10.82;82.06
37778;BME280;23615;51.506;7.678;2023-05-20T01:22:11;100676.41;;;10.78;82.22
37778;BME280;23615;51.506;7.678;2023-05-20T01:24:41;100670.88;;;10.79;82.17
37778;BME280;23615;51.506;7.678;2023-05-20T01:27:09;100669.84;;;10.80;82.61
37778;BME280;23615;51.506;7.678;2023-05-20T01:29:36;100668.63;;;10.76;82.15
37778;BME280;23615;51.506;7.678;2023-05-20T01:32:04;100671.72;;;10.73;82.28
37778;BME280;23615;51.506;7.678;2023-05-20T01:34:31;100667.41;;;10.72;82.18
37778;BME280;23615;51.506;7.678;2023-05-20T01:36:57;100672.75;;;10.72;82.70
37778;BME280;23615;51.506;7.678;2023-05-20T01:39:23;100666.78;;;10.70;82.62
37778;BME280;23615;51.506;7.678;2023-05-20T01:41:49;100669.03;;;10.67;82.19
37778;BME280;23615;51.506;7.678;2023-05-20T01:44:15;100666.81;;;10.64;82.54
37778;BME280;23615;51.506;7.678;2023-05-20T01:46:40;100660.03;;;10.61;82.74
37778;BME280;23615;51.506;7.678;2023-05-20T01:49:05;100661.06;;;10.60;82.26
37778;BME280;23615;51.506;7.678;2023-05-20T01:51:31;100656.53;;;10.61;83.05
37778;BME280;23615;51.506;7.678;2023-05-20T01:53:59;100653.25;;;10.59;82.73
37778;BME280;23615;51.506;7.678;2023-05-20T01:56:24;100659.22;;;10.54;82.63
37778;BME280;23615;51.506;7.678;2023-05-20T01:58:50;100655.53;;;10.48;82.96
37778;BME280;23615;51.506;7.678;2023-05-20T02:01:15;100651.22;;;10.47;83.05
37778;BME280;23615;51.506;7.678;2023-05-20T02:03:40;100646.31;;;10.44;83.29
37778;BME280;23615;51.506;7.678;2023-05-20T02:06:05;100654.72;;;10.41;83.22
37778;BME280;23615;51.506;7.678;2023-05-20T02:08:31;100661.28;;;10.39;83.37
37778;BME280;23615;51.506;7.678;2023-05-20T02:10:56;100662.75;;;10.35;83.31
37778;BME280;23615;51.506;7.678;2023-05-20T02:13:21;100657.41;;;10.35;83.72
37778;BME280;23615;51.506;7.678;2023-05-20T02:15:46;100658.44;;;10.34;83.33
37778;BME280;23615;51.506;7.678;2023-05-20T02:18:12;100655.97;;;10.32;83.13
37778;BME280;23615;51.506;7.678;2023-05-20T02:20:38;100653.50;;;10.31;83.48
37778;BME280;23615;51.506;7.678;2023-05-20T02:23:03;100665.19;;;10.30;83.30
37778;BME280;23615;51.506;7.678;2023-05-20T02:25:30;100662.94;;;10.27;83.32
37778;BME280;23615;51.506;7.678;2023-05-20T02:27:56;100667.84;;;10.30;83.65
37778;BME280;23615;51.506;7.678;2023-05-20T02:30:21;100673.19;;;10.30;83.74
37778;BME280;23615;51.506;7.678;2023-05-20T02:32:46;100672.78;;;10.26;83.65
37778;BME280;23615;51.506;7.678;2023-05-20T02:35:12;100677.31;;;10.26;83.32
37778;BME280;23615;51.506;7.678;2023-05-20T02:37:37;100671.34;;;10.24;83.76
37778;BME280;23615;51.506;7.678;2023-05-20T02:40:03;100673.59;;;10.20;84.19
37778;BME280;23615;51.506;7.678;2023-05-20T02:42:29;100678.13;;;10.20;84.48
37778;BME280;23615;51.506;7.678;2023-05-20T02:44:54;100671.16;;;10.19;84.08
37778;BME280;23615;51.506;7.678;2023-05-20T02:47:22;100677.72;;;10.23;84.47
37778;BME280;23615;51.506;7.678;2023-05-20T02:49:47;100663.34;;;10.24;84.56
37778;BME280;23615;51.506;7.678;2023-05-20T02:52:13;100671.75;;;10.21;84.46
37778;BME280;23615;51.506;7.678;2023-05-20T02:54:40;100662.94;;;10.20;85.21
37778;BME280;23615;51.506;7.678;2023-05-20T02:57:05;100661.72;;;10.23;84.66
37778;BME280;23615;51.506;7.678;2023-05-20T02:59:30;100663.97;;;10.26;84.82
37778;BME280;23615;51.506;7.678;2023-05-20T03:01:56;100657.00;;;10.25;84.91
37778;BME280;23615;51.506;7.678;2023-05-20T03:04:21;100654.31;;;10.25;84.89
37778;BME280;23615;51.506;7.678;2023-05-20T03:06:46;100657.63;;;10.27;85.39
37778;BME280;23615;51.506;7.678;2023-05-20T03:09:11;100655.97;;;10.26;84.66
37778;BME280;23615;51.506;7.678;2023-05-20T03:11:38;100654.75;;;10.28;85.30
37778;BME280;23615;51.506;7.678;2023-05-20T03:14:03;100653.50;;;10.31;84.91
37778;BME280;23615;51.506;7.678;2023-05-20T03:16:28;100655.56;;;10.29;84.98
37778;BME280;23615;51.506;7.678;2023-05-20T03:18:54;100652.66;;;10.30;84.67
37778;BME280;23615;51.506;7.678;2023-05-20T03:21:19;100660.66;;;10.30;84.86
37778;BME280;23615;51.506;7.678;2023-05-20T03:23:47;100657.41;;;10.28;85.06
37778;BME280;23615;51.506;7.678;2023-05-20T03:26:13;100658.44;;;10.27;84.94
37778;BME280;23615;51.506;7.678;2023-05-20T03:28:38;100653.72;;;10.23;85.23
37778;BME280;23615;51.506;7.678;2023-05-20T03:31:03;100646.53;;;10.23;85.30
37778;BME280;23615;51.506;7.678;2023-05-20T03:33:29;100647.34;;;10.24;85.01
37778;BME280;23615;51.506;7.678;2023-05-20T03:35:55;100651.03;;;10.23;85.64
37778;BME280;23615;51.506;7.678;2023-05-20T03:38:20;100649.41;;;10.22;85.43
37778;BME280;23615;51.506;7.678;2023-05-20T03:40:46;100644.25;;;10.20;85.97
37778;BME280;23615;51.506;7.678;2023-05-20T03:43:11;100642.66;;;10.19;85.77
37778;BME280;23615;51.506;7.678;2023-05-20T03:45:36;100635.47;;;10.20;85.74
37778;BME280;23615;51.506;7.678;2023-05-20T03:48:01;100633.00;;;10.18;86.19
37778;BME280;23615;51.506;7.678;2023-05-20T03:50:27;100640.81;;;10.20;85.52
37778;BME280;23615;51.506;7.678;2023-05-20T03:52:52;100642.03;;;10.24;85.40
37778;BME280;23615;51.506;7.678;2023-05-20T03:55:18;100649.63;;;10.27;86.21
37778;BME280;23615;51.506;7.678;2023-05-20T03:57:44;100641.19;;;10.30;85.38
37778;BME280;23615;51.506;7.678;2023-05-20T04:00:10;100638.50;;;10.30;85.49
37778;BME280;23615;51.506;7.678;2023-05-20T04:02:38;100643.44;;;10.33;85.79
37778;BME280;23615;51.506;7.678;2023-05-20T04:05:04;100639.13;;;10.38;85.94
37778;BME280;23615;51.506;7.678;2023-05-20T04:07:29;100640.38;;;10.42;85.30
37778;BME280;23615;51.506;7.678;2023-05-20T04:09:54;100640.78;;;10.46;85.93
37778;BME280;23615;51.506;7.678;2023-05-20T04:12:20;100634.38;;;10.47;85.23
37778;BME280;23615;51.506;7.678;2023-05-20T04:14:45;100638.13;;;10.46;85.77
37778;BME280;23615;51.506;7.678;2023-05-20T04:17:10;100633.81;;;10.45;86.37
37778;BME280;23615;51.506;7.678;2023-05-20T04:19:35;100629.06;;;10.54;85.79
37778;BME280;23615;51.506;7.678;2023-05-20T04:22:03;100631.91;;;10.59;85.66
37778;BME280;23615;51.506;7.678;2023-05-20T04:24:28;100630.28;;;10.64;85.91
37778;BME280;23615;51.506;7.678;2023-05-20T04:26:53;100631.28;;;10.70;85.22
37778;BME280;23615;51.506;7.678;2023-05-20T04:29:19;100626.56;;;10.72;85.50
37778;BME280;23615;51.506;7.678;2023-05-20T04:31:45;100627.19;;;10.74;85.31
37778;BME280;23615;51.506;7.678;2023-05-20T04:34:11;100622.22;;;10.77;84.88
37778;BME280;23615;51.506;7.678;2023-05-20T04:36:37;100632.66;;;10.85;85.14
37778;BME280;23615;51.506;7.678;2023-05-20T04:39:03;100629.59;;;10.88;84.75
37778;BME280;23615;51.506;7.678;2023-05-20T04:41:29;100635.78;;;10.82;85.48
37778;BME280;23615;51.506;7.678;2023-05-20T04:43:55;100629.38;;;10.90;85.19
37778;BME280;23615;51.506;7.678;2023-05-20T04:46:25;100626.91;;;10.88;85.20
37778;BME280;23615;51.506;7.678;2023-05-20T04:48:50;100630.97;;;11.04;84.64
37778;BME280;23615;51.506;7.678;2023-05-20T04:51:15;100629.09;;;11.05;85.07
37778;BME280;23615;51.506;7.678;2023-05-20T04:53:41;100634.66;;;11.10;84.77
37778;BME280;23615;51.506;7.678;2023-05-20T04:56:07;100634.41;;;11.11;84.55
37778;BME280;23615;51.506;7.678;2023-05-20T04:58:32;100626.84;;;11.08;85.04
37778;BME280;23615;51.506;7.678;2023-05-20T05:00:58;100629.69;;;11.13;85.06
37778;BME280;23615;51.506;7.678;2023-05-20T05:03:25;100629.47;;;11.15;84.92
37778;BME280;23615;51.506;7.678;2023-05-20T05:05:54;100625.94;;;11.21;84.51
37778;BME280;23615;51.506;7.678;2023-05-20T05:08:20;100629.22;;;11.23;84.55
37778;BME280;23615;51.506;7.678;2023-05-20T05:10:45;100638.84;;;11.31;84.50
37778;BME280;23615;51.506;7.678;2023-05-20T05:13:10;100635.19;;;11.25;84.87
37778;BME280;23615;51.506;7.678;2023-05-20T05:15:36;100632.69;;;11.30;84.98
37778;BME280;23615;51.506;7.678;2023-05-20T05:18:01;100636.59;;;11.34;84.60
37778;BME280;23615;51.506;7.678;2023-05-20T05:20:26;100633.50;;;11.37;84.73
37778;BME280;23615;51.506;7.678;2023-05-20T05:22:51;100641.50;;;11.37;84.51
37778;BME280;23615;51.506;7.678;2023-05-20T05:25:17;100641.28;;;11.39;84.83
37778;BME280;23615;51.506;7.678;2023-05-20T05:27:42;100635.72;;;11.47;84.81
37778;BME280;23615;51.506;7.678;2023-05-20T05:30:09;100640.38;;;11.51;84.78
37778;BME280;23615;51.506;7.678;2023-05-20T05:32:35;100641.38;;;11.57;84.71
37778;BME280;23615;51.506;7.678;2023-05-20T05:35:01;100639.53;;;11.57;84.54
37778;BME280;23615;51.506;7.678;2023-05-20T05:37:26;100636.84;;;11.57;84.62
37778;BME280;23615;51.506;7.678;2023-05-20T05:39:51;100640.94;;;11.60;84.92
37778;BME280;23615;51.506;7.678;2023-05-20T05:42:16;100637.31;;;11.54;84.24
37778;BME280;23615;51.506;7.678;2023-05-20T05:44:42;100638.50;;;11.58;84.43
37778;BME280;23615;51.506;7.678;2023-05-20T05:47:08;100636.84;;;11.57;84.63
37778;BME280;23615;51.506;7.678;2023-05-20T05:49:33;100637.47;;;11.59;84.40
37778;BME280;23615;51.506;7.678;2023-05-20T05:51:59;100642.44;;;11.56;84.83
37778;BME280;23615;51.506;7.678;2023-05-20T05:54:24;100635.81;;;11.58;84.82
37778;BME280;23615;51.506;7.678;2023-05-20T05:56:50;100640.13;;;11.59;85.02
37778;BME280;23615;51.506;7.678;2023-05-20T05:59:16;100631.50;;;11.64;84.90
37778;BME280;23615;51.506;7.678;2023-05-20T06:01:41;100635.56;;;11.67;85.18
37778;BME280;23615;51.506;7.678;2023-05-20T06:04:07;100637.38;;;11.73;84.78
37778;BME280;23615;51.506;7.678;2023-05-20T06:06:32;100639.44;;;11.77;85.00
37778;BME280;23615;51.506;7.678;2023-05-20T06:08:58;100641.03;;;11.85;84.68
37778;BME280;23615;51.506;7.678;2023-05-20T06:11:23;100632.78;;;11.86;85.00
37778;BME280;23615;51.506;7.678;2023-05-20T06:13:49;100631.94;;;11.92;85.13
37778;BME280;23615;51.506;7.678;2023-05-20T06:16:14;100629.22;;;11.99;84.75
37778;BME280;23615;51.506;7.678;2023-05-20T06:18:40;100626.47;;;12.06;84.94
37778;BME280;23615;51.506;7.678;2023-05-20T06:21:06;100628.44;;;12.17;85.22
37778;BME280;23615;51.506;7.678;2023-05-20T06:23:31;100628.38;;;12.23;85.56
37778;BME280;23615;51.506;7.678;2023-05-20T06:25:57;100625.09;;;12.21;86.17
37778;BME280;23615;51.506;7.678;2023-05-20T06:28:23;100624.44;;;12.26;86.01
37778;BME280;23615;51.506;7.678;2023-05-20T06:30:48;100624.59;;;12.31;85.94
37778;BME280;23615;51.506;7.678;2023-05-20T06:33:14;100625.59;;;12.36;85.65
37778;BME280;23615;51.506;7.678;2023-05-20T06:35:39;100621.06;;;12.37;85.62
37778;BME280;23615;51.506;7.678;2023-05-20T06:38:04;100617.19;;;12.33;85.31
37778;BME280;23615;51.506;7.678;2023-05-20T06:40:30;100614.06;;;12.36;85.32
37778;BME280;23615;51.506;7.678;2023-05-20T06:42:55;100614.38;;;12.46;85.01
37778;BME280;23615;51.506;7.678;2023-05-20T06:45:20;100612.66;;;12.52;84.69
37778;BME280;23615;51.506;7.678;2023-05-20T06:47:46;100608.75;;;12.54;84.65
37778;BME280;23615;51.506;7.678;2023-05-20T06:50:13;100619.66;;;12.53;84.59
37778;BME280;23615;51.506;7.678;2023-05-20T06:52:38;100609.09;;;12.58;84.63
37778;BME280;23615;51.506;7.678;2023-05-20T06:55:04;100609.47;;;12.61;84.77
37778;BME280;23615;51.506;7.678;2023-05-20T06:57:29;100609.63;;;12.66;84.45
37778;BME280;23615;51.506;7.678;2023-05-20T06:59:55;100605.34;;;12.65;84.73
37778;BME280;23615;51.506;7.678;2023-05-20T07:02:21;100604.66;;;12.70;84.60
37778;BME280;23615;51.506;7.678;2023-05-20T07:04:46;100605.25;;;12.72;85.08
37778;BME280;23615;51.506;7.678;2023-05-20T07:07:12;100604.13;;;12.80;83.37
37778;BME280;23615;51.506;7.678;2023-05-20T07:09:37;100605.38;;;12.77;83.75
37778;BME280;23615;51.506;7.678;2023-05-20T07:12:02;100606.38;;;12.83;83.61
37778;BME280;23615;51.506;7.678;2023-05-20T07:14:28;100612.09;;;12.86;83.73
37778;BME280;23615;51.506;7.678;2023-05-20T07:16:53;100611.72;;;12.83;83.51
37778;BME280;23615;51.506;7.678;2023-05-20T07:19:18;100604.88;;;12.87;84.28
37778;BME280;23615;51.506;7.678;2023-05-20T07:21:44;100611.22;;;12.92;84.09
37778;BME280;23615;51.506;7.678;2023-05-20T07:24:09;100605.53;;;13.00;84.07
37778;BME280;23615;51.506;7.678;2023-05-20T07:26:34;100593.69;;;13.08;83.97
37778;BME280;23615;51.506;7.678;2023-05-20T07:29:02;100590.13;;;13.14;83.74
37778;BME280;23615;51.506;7.678;2023-05-20T07:31:27;100594.34;;;13.22;83.73
37778;BME280;23615;51.506;7.678;2023-05-20T07:33:52;100586.91;;;13.24;83.37
37778;BME280;23615;51.506;7.678;2023-05-20T07:36:18;100589.47;;;13.19;83.54
37778;BME280;23615;51.506;7.678;2023-05-20T07:38:43;100578.97;;;13.17;83.70
37778;BME280;23615;51.506;7.678;2023-05-20T07:41:09;100574.72;;;13.28;83.97
37778;BME280;23615;51.506;7.678;2023-05-20T07:43:35;100571.94;;;13.34;83.67
37778;BME280;23615;51.506;7.678;2023-05-20T07:46:00;100573.47;;;13.42;84.15
37778;BME280;23615;51.506;7.678;2023-05-20T07:48:26;100580.34;;;13.49;83.81
37778;BME280;23615;51.506;7.678;2023-05-20T07:50:51;100567.44;;;13.58;83.46
37778;BME280;23615;51.506;7.678;2023-05-20T07:53:16;100575.41;;;13.65;83.10
37778;BME280;23615;51.506;7.678;2023-05-20T07:55:41;100579.03;;;13.70;82.90
37778;BME280;23615;51.506;7.678;2023-05-20T07:58:07;100575.88;;;13.73;82.67
37778;BME280;23615;51.506;7.678;2023-05-20T08:00:32;100577.75;;;13.73;82.00
37778;BME280;23615;51.506;7.678;2023-05-20T08:02:58;100582.84;;;13.63;82.54
37778;BME280;23615;51.506;7.678;2023-05-20T08:05:23;100580.28;;;13.56;82.70
37778;BME280;23615;51.506;7.678;2023-05-20T08:07:48;100585.03;;;13.54;82.55
37778;BME280;23615;51.506;7.678;2023-05-20T08:10:14;100586.94;;;13.65;82.51
37778;BME280;23615;51.506;7.678;2023-05-20T08:12:39;100587.16;;;13.64;82.39
37778;BME280;23615;51.506;7.678;2023-05-20T08:15:05;100593.13;;;13.77;82.11
37778;BME280;23615;51.506;7.678;2023-05-20T08:17:31;100588.00;;;13.64;82.68
37778;BME280;23615;51.506;7.678;2023-05-20T08:19:56;100582.78;;;13.81;82.97
37778;BME280;23615;51.506;7.678;2023-05-20T08:22:22;100581.50;;;13.83;82.34
37778;BME280;23615;51.506;7.678;2023-05-20T08:24:47;100583.47;;;13.88;82.02
37778;BME280;23615;51.506;7.678;2023-05-20T08:27:12;100582.09;;;13.97;81.96
37778;BME280;23615;51.506;7.678;2023-05-20T08:29:37;100591.19;;;13.96;82.26
37778;BME280;23615;51.506;7.678;2023-05-20T08:32:03;100583.84;;;14.03;82.29
37778;BME280;23615;51.506;7.678;2023-05-20T08:34:28;100582.56;;;14.06;81.98
37778;BME280;23615;51.506;7.678;2023-05-20T08:36:54;100585.84;;;14.19;81.66
37778;BME280;23615;51.506;7.678;2023-05-20T08:39:19;100582.09;;;14.20;81.47
37778;BME280;23615;51.506;7.678;2023-05-20T08:41:45;100586.88;;;14.30;81.31
37778;BME280;23615;51.506;7.678;2023-05-20T08:44:11;100589.31;;;14.32;81.03
37778;BME280;23615;51.506;7.678;2023-05-20T08:46:37;100589.31;;;14.32;81.85
37778;BME280;23615;51.506;7.678;2023-05-20T08:49:03;100585.72;;;14.38;81.56
37778;BME280;23615;51.506;7.678;2023-05-20T08:51:30;100590.75;;;14.46;81.41
37778;BME280;23615;51.506;7.678;2023-05-20T08:53:58;100586.91;;;14.42;81.32
37778;BME280;23615;51.506;7.678;2023-05-20T08:56:24;100584.09;;;14.48;80.97
37778;BME280;23615;51.506;7.678;2023-05-20T08:58:51;100588.41;;;14.49;80.97
37778;BME280;23615;51.506;7.678;2023-05-20T09:01:17;100587.38;;;14.50;80.78
37778;BME280;23615;51.506;7.678;2023-05-20T09:03:43;100586.06;;;14.65;80.47
37778;BME280;23615;51.506;7.678;2023-05-20T09:06:08;100586.53;;;14.73;80.30
37778;BME280;23615;51.506;7.678;2023-05-20T09:08:34;100585.81;;;14.78;79.94
37778;BME280;23615;51.506;7.678;2023-05-20T09:11:00;100585.56;;;14.79;80.01
37778;BME280;23615;51.506;7.678;2023-05-20T09:13:26;100581.38;;;14.83;80.01
37778;BME280;23615;51.506;7.678;2023-05-20T09:15:52;100572.00;;;14.86;79.95
37778;BME280;23615;51.506;7.678;2023-05-20T09:18:17;100571.88;;;14.92;79.92
37778;BME280;23615;51.506;7.678;2023-05-20T09:20:45;100571.16;;;14.97;80.45
37778;BME280;23615;51.506;7.678;2023-05-20T09:23:11;100570.09;;;14.98;80.15
37778;BME280;23615;51.506;7.678;2023-05-20T09:25:37;100572.97;;;15.08;80.19
37778;BME280;23615;51.506;7.678;2023-05-20T09:28:08;100575.63;;;15.20;79.54
37778;BME280;23615;51.506;7.678;2023-05-20T09:30:33;100565.81;;;15.14;79.71
37778;BME280;23615;51.506;7.678;2023-05-20T09:33:00;100574.69;;;15.14;79.88
37778;BME280;23615;51.506;7.678;2023-05-20T09:35:27;100573.66;;;15.15;79.87
37778;BME280;23615;51.506;7.678;2023-05-20T09:37:54;100574.19;;;15.29;80.36
37778;BME280;23615;51.506;7.678;2023-05-20T09:40:23;100564.25;;;15.29;79.53
37778;BME280;23615;51.506;7.678;2023-05-20T09:45:23;100576.50;;;15.37;79.61
37778;BME280;23615;51.506;7.678;2023-05-20T09:47:50;100572.47;;;15.40;79.81
37778;BME280;23615;51.506;7.678;2023-05-20T09:50:17;100575.50;;;15.43;79.66
37778;BME280;23615;51.506;7.678;2023-05-20T09:52:46;100567.88;;;15.52;80.08
37778;BME280;23615;51.506;7.678;2023-05-20T09:55:11;100553.22;;;15.59;79.83
37778;BME280;23615;51.506;7.678;2023-05-20T09:57:37;100561.94;;;15.66;79.76
37778;BME280;23615;51.506;7.678;2023-05-20T10:00:04;100554.16;;;15.65;80.01
37778;BME280;23615;51.506;7.678;2023-05-20T10:02:31;100553.22;;;15.76;80.02
37778;BME280;23615;51.506;7.678;2023-05-20T10:04:58;100552.91;;;15.89;80.29
37778;BME280;23615;51.506;7.678;2023-05-20T10:07:38;100550.22;;;16.06;79.74
37778;BME280;23615;51.506;7.678;2023-05-20T10:10:16;100546.91;;;16.21;78.70
37778;BME280;23615;51.506;7.678;2023-05-20T10:13:00;100539.88;;;16.36;78.46
37778;BME280;23615;51.506;7.678;2023-05-20T10:21:23;100528.38;;;16.84;77.64
37778;BME280;23615;51.506;7.678;2023-05-20T10:23:50;100524.47;;;16.97;77.52
37778;BME280;23615;51.506;7.678;2023-05-20T10:26:16;100512.50;;;17.10;76.78
37778;BME280;23615;51.506;7.678;2023-05-20T10:28:42;100515.59;;;17.24;76.39
37778;BME280;23615;51.506;7.678;2023-05-20T10:31:20;100514.38;;;17.36;76.58
37778;BME280;23615;51.506;7.678;2023-05-20T10:33:46;100522.25;;;17.43;76.51
37778;BME280;23615;51.506;7.678;2023-05-20T10:36:25;100518.06;;;17.57;75.28
37778;BME280;23615;51.506;7.678;2023-05-20T10:38:55;100513.84;;;17.66;74.68
37778;BME280;23615;51.506;7.678;2023-05-20T10:41:23;100515.25;;;17.74;74.88
37778;BME280;23615;51.506;7.678;2023-05-20T10:44:06;100508.25;;;17.78;74.99
37778;BME280;23615;51.506;7.678;2023-05-20T10:46:33;100501.94;;;18.04;74.41
37778;BME280;23615;51.506;7.678;2023-05-20T10:49:01;100504.38;;;18.06;73.63
37778;BME280;23615;51.506;7.678;2023-05-20T10:51:28;100499.03;;;18.16;73.83
37778;BME280;23615;51.506;7.678;2023-05-20T10:53:54;100505.94;;;18.39;74.28
37778;BME280;23615;51.506;7.678;2023-05-20T10:56:22;100496.25;;;18.48;73.76
37778;BME280;23615;51.506;7.678;2023-05-20T10:58:48;100504.88;;;18.50;72.65
37778;BME280;23615;51.506;7.678;2023-05-20T11:01:14;100501.66;;;18.53;72.34
37778;BME280;23615;51.506;7.678;2023-05-20T11:03:40;100491.44;;;18.60;72.58
37778;BME280;23615;51.506;7.678;2023-05-20T11:06:15;100489.88;;;18.74;72.38
37778;BME280;23615;51.506;7.678;2023-05-20T11:08:40;100490.41;;;18.76;71.41
37778;BME280;23615;51.506;7.678;2023-05-20T11:11:06;100506.09;;;18.74;71.27
37778;BME280;23615;51.506;7.678;2023-05-20T11:13:32;100494.19;;;18.65;70.85
37778;BME280;23615;51.506;7.678;2023-05-20T11:15:57;100493.09;;;18.66;70.97
37778;BME280;23615;51.506;7.678;2023-05-20T11:18:25;100487.16;;;18.64;71.70
37778;BME280;23615;51.506;7.678;2023-05-20T11:20:54;100487.41;;;18.62;72.41
37778;BME280;23615;51.506;7.678;2023-05-20T11:23:19;100486.06;;;18.65;72.72
37778;BME280;23615;51.506;7.678;2023-05-20T11:25:49;100474.75;;;18.78;73.55
37778;BME280;23615;51.506;7.678;2023-05-20T11:28:15;100473.91;;;18.67;71.65
37778;BME280;23615;51.506;7.678;2023-05-20T11:30:43;100468.78;;;18.76;71.44
37778;BME280;23615;51.506;7.678;2023-05-20T11:33:13;100466.41;;;18.90;71.88
37778;BME280;23615;51.506;7.678;2023-05-20T11:35:44;100466.41;;;19.00;70.87
37778;BME280;23615;51.506;7.678;2023-05-20T11:38:10;100465.59;;;18.99;70.94
37778;BME280;23615;51.506;7.678;2023-05-20T11:40:35;100461.56;;;19.02;70.63
37778;BME280;23615;51.506;7.678;2023-05-20T11:43:02;100465.06;;;19.08;69.99
37778;BME280;23615;51.506;7.678;2023-05-20T11:45:41;100462.66;;;19.16;69.79
37778;BME280;23615;51.506;7.678;2023-05-20T11:48:07;100452.63;;;19.22;69.90
37778;BME280;23615;51.506;7.678;2023-05-20T11:50:35;100446.44;;;19.36;69.31
37778;BME280;23615;51.506;7.678;2023-05-20T11:53:08;100455.09;;;19.38;69.33
37778;BME280;23615;51.506;7.678;2023-05-20T11:55:43;100449.41;;;19.45;68.74
37778;BME280;23615;51.506;7.678;2023-05-20T11:58:10;100449.13;;;19.47;68.46
37778;BME280;23615;51.506;7.678;2023-05-20T12:00:35;100443.72;;;19.47;68.79
37778;BME280;23615;51.506;7.678;2023-05-20T12:03:00;100444.00;;;19.50;69.93
37778;BME280;23615;51.506;7.678;2023-05-20T12:05:25;100434.81;;;19.56;68.52
37778;BME280;23615;51.506;7.678;2023-05-20T12:07:51;100441.31;;;19.55;68.26
37778;BME280;23615;51.506;7.678;2023-05-20T12:10:16;100435.06;;;19.50;69.45
37778;BME280;23615;51.506;7.678;2023-05-20T12:12:42;100436.41;;;19.52;69.60
37778;BME280;23615;51.506;7.678;2023-05-20T12:15:09;100431.28;;;19.51;69.80
37778;BME280;23615;51.506;7.678;2023-05-20T12:17:44;100425.59;;;19.62;70.28
37778;BME280;23615;51.506;7.678;2023-05-20T12:20:12;100426.38;;;19.68;70.23
37778;BME280;23615;51.506;7.678;2023-05-20T12:22:38;100426.13;;;19.59;69.66
37778;BME280;23615;51.506;7.678;2023-05-20T12:25:04;100430.19;;;19.52;69.66
37778;BME280;23615;51.506;7.678;2023-05-20T12:27:30;100431.84;;;19.48;69.10
37778;BME280;23615;51.506;7.678;2023-05-20T12:29:55;100436.94;;;19.34;68.94
37778;BME280;23615;51.506;7.678;2023-05-20T12:32:20;100433.72;;;19.27;69.43
37778;BME280;23615;51.506;7.678;2023-05-20T12:34:47;100433.16;;;19.15;69.48
37778;BME280;23615;51.506;7.678;2023-05-20T12:37:12;100433.97;;;19.05;69.29
37778;BME280;23615;51.506;7.678;2023-05-20T12:39:38;100431.00;;;19.12;70.49
37778;BME280;23615;51.506;7.678;2023-05-20T12:42:03;100432.63;;;19.08;69.66
37778;BME280;23615;51.506;7.678;2023-05-20T12:44:28;100433.97;;;19.00;69.27
37778;BME280;23615;51.506;7.678;2023-05-20T12:46:54;100427.19;;;19.08;69.52
37778;BME280;23615;51.506;7.678;2023-05-20T12:49:20;100416.38;;;19.08;70.21
37778;BME280;23615;51.506;7.678;2023-05-20T12:51:45;100417.47;;;19.17;70.03
37778;BME280;23615;51.506;7.678;2023-05-20T12:54:10;100413.41;;;19.29;69.69
37778;BME280;23615;51.506;7.678;2023-05-20T12:56:36;100413.13;;;19.36;69.80